createdAt,value
2023-02-11T00:00:41.326Z,52.33
2023-02-11T00:03:08.235Z,50.05
2023-02-11T00:05:35.192Z,53.00
2023-02-11T00:08:01.775Z,49.67
2023-02-11T00:10:28.299Z,50.88
2023-02-11T00:12:54.846Z,52.80
2023-02-11T00:15:21.454Z,51.67
2023-02-11T00:17:48.078Z,58.60
2023-02-11T00:20:14.933Z,53.93
2023-02-11T00:22:41.602Z,54.80
2023-02-11T00:25:08.369Z,54.63
2023-02-11T00:27:36.901Z,57.60
2023-02-11T00:30:05.209Z,55.80
2023-02-11T00:32:31.800Z,56.47
2023-02-11T00:34:58.376Z,57.13
2023-02-11T00:37:24.958Z,56.70
2023-02-11T00:39:51.511Z,52.72
2023-02-11T00:42:18.130Z,58.17
2023-02-11T00:44:44.687Z,54.53
2023-02-11T00:47:11.187Z,51.20
2023-02-11T00:49:39.562Z,53.47
2023-02-11T00:52:06.524Z,54.80
2023-02-11T00:54:33.065Z,58.58
2023-02-11T00:56:59.571Z,54.10
2023-02-11T00:59:26.141Z,59.80
2023-02-11T01:01:52.713Z,53.33
2023-02-11T01:04:19.291Z,51.07
2023-02-11T01:06:45.849Z,53.70
2023-02-11T01:09:12.364Z,49.37
2023-02-11T01:11:38.902Z,56.72
2023-02-11T01:14:05.485Z,59.53
2023-02-11T01:16:32.109Z,58.60
2023-02-11T01:18:58.782Z,52.40
2023-02-11T01:21:25.713Z,64.55
2023-02-11T01:23:52.780Z,51.38
2023-02-11T01:26:19.440Z,54.27
2023-02-11T01:28:46.296Z,55.28
2023-02-11T01:31:12.985Z,56.43
2023-02-11T01:33:39.747Z,56.30
2023-02-11T01:36:06.734Z,54.57
2023-02-11T01:38:34.397Z,55.13
2023-02-11T01:41:04.202Z,51.80
2023-02-11T01:43:41.230Z,53.70
2023-02-11T01:46:36.991Z,52.53
2023-02-11T01:49:14.648Z,52.97
2023-02-11T01:51:50.124Z,52.58
2023-02-11T01:54:40.224Z,54.05
2023-02-11T01:57:23.181Z,58.43
2023-02-11T02:00:00.604Z,53.43
2023-02-11T02:02:36.670Z,59.75
2023-02-11T02:05:24.082Z,55.90
2023-02-11T02:08:03.214Z,60.17
2023-02-11T02:10:31.139Z,54.05
2023-02-11T02:12:57.718Z,57.03
2023-02-11T02:15:33.428Z,58.70
2023-02-11T02:18:33.842Z,57.13
2023-02-11T02:21:30.748Z,57.47
2023-02-11T02:24:27.520Z,61.67
2023-02-11T02:27:22.346Z,57.13
2023-02-11T02:30:10.513Z,59.83
2023-02-11T02:32:52.321Z,60.97
2023-02-11T02:35:40.084Z,60.03
2023-02-11T02:38:15.252Z,61.83
2023-02-11T02:40:49.215Z,60.73
2023-02-11T02:43:17.294Z,59.60
2023-02-11T02:45:44.037Z,60.83
2023-02-11T02:48:28.173Z,65.67
2023-02-11T02:51:25.537Z,59.40
2023-02-11T02:54:18.950Z,54.03
2023-02-11T02:57:11.132Z,56.97
2023-02-11T02:59:54.401Z,55.80
2023-02-11T03:02:26.622Z,59.43
2023-02-11T03:05:16.112Z,57.50
2023-02-11T03:07:54.646Z,56.90
2023-02-11T03:10:31.267Z,55.08
2023-02-11T03:12:58.976Z,62.97
2023-02-11T03:15:28.264Z,57.40
2023-02-11T03:20:23.306Z,62.20
2023-02-11T03:22:58.302Z,59.00
2023-02-11T03:25:31.761Z,57.77
2023-02-11T03:28:18.022Z,61.60
2023-02-11T03:30:56.317Z,59.33
2023-02-11T03:33:31.919Z,58.50
2023-02-11T03:36:07.724Z,58.47
2023-02-11T03:38:39.683Z,68.20
2023-02-11T03:41:07.879Z,59.20
2023-02-11T03:43:40.427Z,58.30
2023-02-11T03:46:08.493Z,61.57
2023-02-11T03:48:58.545Z,63.67
2023-02-11T03:51:27.696Z,58.40
2023-02-11T03:53:57.694Z,61.92
2023-02-11T03:56:27.082Z,55.03
2023-02-11T03:58:53.876Z,55.23
2023-02-11T04:01:20.603Z,60.97
2023-02-11T04:03:47.244Z,56.83
2023-02-11T04:06:13.946Z,60.10
2023-02-11T04:08:40.543Z,59.00
2023-02-11T04:11:07.108Z,58.43
2023-02-11T04:13:33.609Z,60.30
2023-02-11T04:16:00.229Z,56.97
2023-02-11T04:18:26.876Z,59.70
2023-02-11T04:20:53.373Z,60.35
2023-02-11T04:23:19.942Z,59.37
2023-02-11T04:25:46.510Z,60.90
2023-02-11T04:28:13.194Z,53.93
2023-02-11T04:30:39.885Z,56.95
2023-02-11T04:33:06.512Z,54.55
2023-02-11T04:35:33.239Z,55.78
2023-02-11T04:37:59.766Z,54.63
2023-02-11T04:40:26.285Z,53.27
2023-02-11T04:42:52.899Z,58.85
2023-02-11T04:45:20.635Z,58.05
2023-02-11T04:47:47.146Z,57.03
2023-02-11T04:50:13.646Z,58.93
2023-02-11T04:52:40.299Z,59.22
2023-02-11T04:55:07.268Z,57.30
2023-02-11T04:57:33.839Z,58.43
2023-02-11T05:00:00.418Z,54.60
2023-02-11T05:02:27.270Z,53.60
2023-02-11T05:04:53.817Z,62.90
2023-02-11T05:07:20.332Z,49.88
2023-02-11T05:09:46.878Z,51.80
2023-02-11T05:12:13.409Z,52.20
2023-02-11T05:14:39.929Z,52.10
2023-02-11T05:17:06.566Z,50.08
2023-02-11T05:19:33.235Z,53.05
2023-02-11T05:22:03.097Z,52.20
2023-02-11T05:24:32.262Z,52.03
2023-02-11T05:26:58.953Z,52.33
2023-02-11T05:29:25.469Z,53.27
2023-02-11T05:31:52.403Z,49.13
2023-02-11T05:34:18.981Z,48.43
2023-02-11T05:36:45.622Z,55.63
2023-02-11T05:39:12.235Z,55.97
2023-02-11T05:41:38.881Z,50.30
2023-02-11T05:44:05.426Z,48.25
2023-02-11T05:46:32.044Z,56.90
2023-02-11T05:48:58.671Z,55.00
2023-02-11T05:51:25.249Z,48.63
2023-02-11T05:53:51.832Z,50.97
2023-02-11T05:56:18.351Z,44.63
2023-02-11T05:58:44.929Z,54.40
2023-02-11T06:01:11.538Z,49.10
2023-02-11T06:03:38.094Z,50.20
2023-02-11T06:06:05.074Z,45.03
2023-02-11T06:08:31.628Z,47.20
2023-02-11T06:10:58.149Z,52.65
2023-02-11T06:13:24.715Z,47.55
2023-02-11T06:15:59.162Z,50.00
2023-02-11T06:18:26.094Z,49.28
2023-02-11T06:20:52.959Z,49.63
2023-02-11T06:23:19.656Z,54.35
2023-02-11T06:25:46.152Z,50.33
2023-02-11T06:28:13.001Z,47.35
2023-02-11T06:30:39.882Z,49.40
2023-02-11T06:33:06.519Z,54.55
2023-02-11T06:35:35.191Z,46.72
2023-02-11T06:38:02.001Z,47.92
2023-02-11T06:40:28.533Z,49.25
2023-02-11T06:42:55.135Z,49.95
2023-02-11T06:45:21.668Z,50.73
2023-02-11T06:47:50.962Z,49.33
2023-02-11T06:52:44.138Z,45.63
2023-02-11T06:55:10.786Z,46.10
2023-02-11T06:57:37.353Z,49.17
2023-02-11T07:00:05.688Z,50.87
2023-02-11T07:02:32.453Z,49.13
2023-02-11T07:04:58.985Z,49.03
2023-02-11T07:07:25.629Z,46.93
2023-02-11T07:09:52.275Z,46.47
2023-02-11T07:12:18.864Z,47.17
2023-02-11T07:14:45.486Z,48.43
2023-02-11T07:17:12.076Z,49.72
2023-02-11T07:19:38.590Z,49.40
2023-02-11T07:22:05.086Z,44.05
2023-02-11T07:24:31.698Z,47.23
2023-02-11T07:26:58.405Z,48.17
2023-02-11T07:29:24.998Z,48.90
2023-02-11T07:31:51.606Z,49.23
2023-02-11T07:34:18.327Z,89.05
2023-02-11T07:36:45.030Z,45.00
2023-02-11T07:39:11.548Z,40.60
2023-02-11T07:41:38.591Z,40.85
2023-02-11T07:44:05.272Z,44.78
2023-02-11T07:46:32.120Z,40.28
2023-02-11T07:48:58.714Z,40.20
2023-02-11T07:51:27.884Z,51.90
2023-02-11T07:53:56.286Z,34.63
2023-02-11T07:56:23.526Z,35.47
2023-02-11T07:58:50.718Z,32.22
2023-02-11T08:01:24.906Z,34.95
2023-02-11T08:03:52.035Z,36.65
2023-02-11T08:06:21.134Z,41.60
2023-02-11T08:08:48.373Z,36.70
2023-02-11T08:11:23.265Z,33.92
2023-02-11T08:13:50.331Z,38.17
2023-02-11T08:16:28.770Z,34.88
2023-02-11T08:19:01.342Z,38.20
2023-02-11T08:21:28.590Z,36.75
2023-02-11T08:23:55.985Z,41.28
2023-02-11T08:26:25.711Z,34.50
2023-02-11T08:28:54.379Z,39.80
2023-02-11T08:31:27.246Z,29.00
2023-02-11T08:33:54.905Z,37.05
2023-02-11T08:36:23.585Z,42.47
2023-02-11T08:38:50.210Z,39.50
2023-02-11T08:41:17.668Z,37.70
2023-02-11T08:43:45.262Z,35.70
2023-02-11T08:46:14.633Z,38.30
2023-02-11T08:48:41.488Z,39.42
2023-02-11T08:51:09.701Z,38.50
2023-02-11T08:53:36.990Z,39.25
2023-02-11T08:56:03.969Z,38.90
2023-02-11T08:58:30.632Z,37.83
2023-02-11T09:00:57.221Z,37.75
2023-02-11T09:03:24.224Z,36.55
2023-02-11T09:05:53.170Z,38.95
2023-02-11T09:08:20.831Z,26.58
2023-02-11T09:10:47.353Z,39.67
2023-02-11T09:13:14.039Z,39.63
2023-02-11T09:15:40.643Z,37.85
2023-02-11T09:18:07.482Z,38.33
2023-02-11T09:20:34.136Z,37.38
2023-02-11T09:23:00.721Z,38.65
2023-02-11T09:25:27.287Z,36.88
2023-02-11T09:27:53.994Z,37.30
2023-02-11T09:30:21.037Z,39.60
2023-02-11T09:32:47.724Z,34.40
2023-02-11T09:35:14.405Z,36.78
2023-02-11T09:37:40.988Z,40.28
2023-02-11T09:40:08.030Z,39.63
2023-02-11T09:43:01.169Z,40.47
2023-02-11T09:45:30.843Z,36.55
2023-02-11T09:48:06.704Z,40.60
2023-02-11T09:50:39.375Z,39.42
2023-02-11T09:53:25.144Z,43.28
2023-02-11T09:55:57.359Z,39.42
2023-02-11T09:58:35.266Z,37.92
2023-02-11T10:01:13.675Z,41.67
2023-02-11T10:04:04.841Z,40.65
2023-02-11T10:06:55.077Z,43.38
2023-02-11T10:09:45.417Z,39.40
2023-02-11T10:12:22.111Z,36.20
2023-02-11T10:15:08.228Z,36.20
2023-02-11T10:17:55.416Z,36.95
2023-02-11T10:20:36.927Z,39.47
2023-02-11T10:23:17.901Z,36.78
2023-02-11T10:25:48.214Z,38.17
2023-02-11T10:28:18.182Z,40.00
2023-02-11T10:31:04.902Z,40.05
2023-02-11T10:33:52.482Z,34.53
2023-02-11T10:36:20.982Z,46.35
2023-02-11T10:38:47.492Z,43.28
2023-02-11T10:41:20.252Z,39.10
2023-02-11T10:43:46.772Z,42.10
2023-02-11T10:46:24.027Z,36.15
2023-02-11T10:48:53.274Z,40.00
2023-02-11T10:51:24.067Z,41.13
2023-02-11T10:54:19.325Z,40.78
2023-02-11T10:56:54.686Z,42.45
2023-02-11T10:59:37.419Z,41.15
2023-02-11T11:02:34.585Z,38.40
2023-02-11T11:05:05.797Z,42.85
2023-02-11T11:07:34.172Z,38.88
2023-02-11T11:10:08.397Z,41.83
2023-02-11T11:12:47.910Z,40.40
2023-02-11T11:15:28.565Z,37.35
2023-02-11T11:18:21.382Z,40.88
2023-02-11T11:21:05.617Z,42.25
2023-02-11T11:23:33.456Z,39.70
2023-02-11T11:26:12.303Z,42.70
2023-02-11T11:28:46.852Z,47.25
2023-02-11T11:31:26.925Z,37.85
2023-02-11T11:33:56.829Z,37.22
2023-02-11T11:36:32.072Z,40.00
2023-02-11T11:39:03.040Z,37.50
2023-02-11T11:41:32.883Z,42.03
2023-02-11T11:44:15.187Z,47.28
2023-02-11T11:46:44.269Z,40.78
2023-02-11T11:49:25.291Z,42.28
2023-02-11T11:52:13.795Z,45.10
2023-02-11T11:54:43.320Z,41.17
2023-02-11T11:57:17.573Z,44.42
2023-02-11T11:59:44.882Z,37.72
2023-02-11T12:02:50.474Z,37.80
2023-02-11T12:05:27.821Z,39.53
2023-02-11T12:08:13.298Z,38.70
2023-02-11T12:11:04.537Z,34.15
2023-02-11T12:13:57.250Z,37.50
2023-02-11T12:16:36.062Z,39.13
2023-02-11T12:19:41.028Z,44.45
2023-02-11T12:22:25.004Z,47.35
2023-02-11T12:25:22.025Z,41.78
2023-02-11T12:28:13.457Z,41.35
2023-02-11T12:30:54.527Z,36.00
2023-02-11T12:33:58.276Z,35.72
2023-02-11T12:36:54.238Z,35.97
2023-02-11T12:39:48.138Z,32.05
2023-02-11T12:43:10.352Z,36.13
2023-02-11T12:46:01.845Z,38.40
2023-02-11T12:48:47.094Z,36.72
2023-02-11T12:51:44.732Z,37.60
2023-02-11T12:54:23.071Z,36.17
2023-02-11T12:56:59.378Z,34.90
2023-02-11T12:59:50.002Z,30.38
2023-02-11T13:02:36.131Z,36.58
2023-02-11T13:05:23.632Z,35.55
2023-02-11T13:07:52.943Z,34.95
2023-02-11T13:13:11.186Z,35.95
2023-02-11T13:15:38.684Z,33.47
2023-02-11T13:18:29.967Z,31.10
2023-02-11T13:21:04.180Z,39.17
2023-02-11T13:24:05.385Z,31.38
2023-02-11T13:26:31.939Z,32.20
2023-02-11T13:29:23.309Z,35.20
2023-02-11T13:31:55.315Z,32.97
2023-02-11T13:34:54.040Z,34.35
2023-02-11T13:37:37.056Z,34.42
2023-02-11T13:40:06.670Z,33.83
2023-02-11T13:42:46.986Z,30.63
2023-02-11T13:45:37.860Z,33.33
2023-02-11T13:48:08.180Z,30.52
2023-02-11T13:50:46.520Z,31.08
2023-02-11T13:53:15.939Z,24.10
2023-02-11T13:55:48.392Z,30.10
2023-02-11T13:58:14.877Z,38.70
2023-02-11T14:00:50.918Z,32.65
2023-02-11T14:03:58.619Z,29.00
2023-02-11T14:06:47.824Z,30.65
2023-02-11T14:09:14.352Z,27.63
2023-02-11T14:11:47.990Z,27.02
2023-02-11T14:14:28.541Z,27.88
2023-02-11T14:16:58.415Z,27.60
2023-02-11T14:19:33.522Z,28.48
2023-02-11T14:22:11.745Z,28.20
2023-02-11T14:24:44.869Z,30.67
2023-02-11T14:27:27.577Z,29.70
2023-02-11T14:30:07.076Z,25.13
2023-02-11T14:32:50.475Z,25.65
2023-02-11T14:35:35.380Z,27.25
2023-02-11T14:38:04.679Z,25.40
2023-02-11T14:40:40.137Z,25.63
2023-02-11T14:43:13.631Z,23.05
2023-02-11T14:45:41.002Z,26.10
2023-02-11T14:48:18.692Z,22.90
2023-02-11T14:50:50.256Z,28.73
2023-02-11T14:53:23.359Z,26.40
2023-02-11T14:55:54.888Z,25.33
2023-02-11T14:58:22.880Z,30.40
2023-02-11T15:01:00.642Z,28.73
2023-02-11T15:03:30.854Z,23.35
2023-02-11T15:06:00.155Z,23.70
2023-02-11T15:08:28.401Z,23.38
2023-02-11T15:10:56.707Z,29.50
2023-02-11T15:13:30.975Z,26.45
2023-02-11T15:16:06.443Z,20.85
2023-02-11T15:18:42.117Z,24.10
2023-02-11T15:21:09.694Z,18.45
2023-02-11T15:23:37.139Z,21.38
2023-02-11T15:26:13.528Z,20.25
2023-02-11T15:28:51.789Z,22.02
2023-02-11T15:31:23.226Z,18.25
2023-02-11T15:33:50.883Z,16.80
2023-02-11T15:36:19.663Z,18.65
2023-02-11T15:38:46.336Z,17.98
2023-02-11T15:41:37.532Z,18.92
2023-02-11T15:44:04.239Z,17.77
2023-02-11T15:46:38.416Z,20.05
2023-02-11T15:49:06.371Z,19.88
2023-02-11T15:51:38.714Z,16.35
2023-02-11T15:54:18.531Z,19.30
2023-02-11T15:56:51.216Z,16.98
2023-02-11T15:59:33.135Z,21.20
2023-02-11T16:02:15.887Z,16.73
2023-02-11T16:04:57.158Z,17.90
2023-02-11T16:07:49.469Z,25.23
2023-02-11T16:10:18.712Z,22.25
2023-02-11T16:13:02.228Z,17.63
2023-02-11T16:15:34.859Z,19.70
2023-02-11T16:18:04.064Z,18.92
2023-02-11T16:20:31.077Z,19.58
2023-02-11T16:22:57.758Z,18.90
2023-02-11T16:25:24.375Z,18.92
2023-02-11T16:27:53.016Z,21.58
2023-02-11T16:30:36.432Z,19.02
2023-02-11T16:33:04.141Z,21.98
2023-02-11T16:35:31.064Z,18.23
2023-02-11T16:37:57.712Z,19.77
2023-02-11T16:40:24.333Z,19.88
2023-02-11T16:42:52.347Z,16.60
2023-02-11T16:45:19.202Z,18.90
2023-02-11T16:47:46.120Z,20.08
2023-02-11T16:50:25.047Z,19.27
2023-02-11T16:52:52.334Z,15.85
2023-02-11T16:55:19.158Z,21.70
2023-02-11T16:57:45.666Z,18.27
2023-02-11T17:00:16.293Z,18.23
2023-02-11T17:02:43.474Z,18.52
2023-02-11T17:05:19.831Z,16.95
2023-02-11T17:07:46.892Z,16.65
2023-02-11T17:10:22.529Z,18.13
2023-02-11T17:12:50.842Z,20.83
2023-02-11T17:15:17.471Z,18.77
2023-02-11T17:17:44.434Z,20.55
2023-02-11T17:20:12.507Z,20.10
2023-02-11T17:22:39.230Z,21.15
2023-02-11T17:25:06.552Z,20.23
2023-02-11T17:27:33.444Z,17.48
2023-02-11T17:30:00.233Z,21.65
2023-02-11T17:32:26.949Z,23.50
2023-02-11T17:34:54.456Z,24.85
2023-02-11T17:37:20.958Z,25.85
2023-02-11T17:39:49.649Z,24.63
2023-02-11T17:42:16.377Z,26.48
2023-02-11T17:44:44.148Z,27.40
2023-02-11T17:47:11.474Z,26.42
2023-02-11T17:49:38.675Z,26.70
2023-02-11T17:52:05.464Z,27.67
2023-02-11T17:54:32.037Z,28.67
2023-02-11T17:56:58.787Z,27.30
2023-02-11T17:59:25.856Z,27.77
2023-02-11T18:01:52.426Z,27.48
2023-02-11T18:04:19.839Z,28.00
2023-02-11T18:06:46.674Z,27.67
2023-02-11T18:09:13.399Z,33.97
2023-02-11T18:11:40.812Z,28.08
2023-02-11T18:14:08.278Z,27.73
2023-02-11T18:16:36.519Z,32.13
2023-02-11T18:19:04.054Z,33.03
2023-02-11T18:21:30.737Z,34.00
2023-02-11T18:23:57.243Z,30.88
2023-02-11T18:26:26.244Z,37.08
2023-02-11T18:28:52.791Z,36.00
2023-02-11T18:31:19.688Z,35.42
2023-02-11T18:33:47.742Z,27.90
2023-02-11T18:36:15.620Z,29.35
2023-02-11T18:38:44.290Z,32.00
2023-02-11T18:41:11.577Z,35.15
2023-02-11T18:43:39.318Z,33.72
2023-02-11T18:46:11.761Z,34.85
2023-02-11T18:48:38.446Z,31.17
2023-02-11T18:51:12.726Z,32.83
2023-02-11T18:53:39.417Z,38.22
2023-02-11T18:56:11.781Z,34.20
2023-02-11T18:58:38.882Z,31.98
2023-02-11T19:01:14.356Z,32.28
2023-02-11T19:03:41.251Z,36.65
2023-02-11T19:06:13.107Z,41.03
2023-02-11T19:08:39.730Z,36.03
2023-02-11T19:11:06.320Z,37.17
2023-02-11T19:13:32.914Z,31.33
2023-02-11T19:15:59.480Z,37.30
2023-02-11T19:18:26.231Z,34.08
2023-02-11T19:20:52.761Z,35.13
2023-02-11T19:23:19.367Z,31.45
2023-02-11T19:25:47.261Z,32.03
2023-02-11T19:28:14.201Z,35.60
2023-02-11T19:30:41.436Z,32.95
2023-02-11T19:33:10.122Z,35.25
2023-02-11T19:35:36.989Z,30.88
2023-02-11T19:38:06.466Z,31.45
2023-02-11T19:40:33.316Z,32.83
2023-02-11T19:42:59.910Z,32.03
2023-02-11T19:45:26.926Z,32.92
2023-02-11T19:47:57.040Z,31.45
2023-02-11T19:50:24.191Z,33.10
2023-02-11T19:52:50.895Z,36.33
2023-02-11T19:55:17.546Z,36.55
2023-02-11T19:57:44.198Z,34.35
2023-02-11T20:00:11.241Z,29.63
2023-02-11T20:02:39.306Z,37.95
2023-02-11T20:05:06.295Z,38.70
2023-02-11T20:07:32.863Z,32.95
2023-02-11T20:09:59.839Z,35.25
2023-02-11T20:12:26.348Z,34.28
2023-02-11T20:14:52.839Z,33.28
2023-02-11T20:17:19.398Z,35.75
2023-02-11T20:19:45.896Z,33.88
2023-02-11T20:22:12.404Z,36.55
2023-02-11T20:24:39.064Z,33.88
2023-02-11T20:27:08.263Z,35.97
2023-02-11T20:29:34.790Z,61.90
2023-02-11T20:32:02.783Z,37.97
2023-02-11T20:34:29.627Z,49.83
2023-02-11T20:36:56.328Z,88.05
2023-02-11T20:39:24.432Z,84.75
2023-02-11T20:41:51.590Z,42.95
2023-02-11T20:44:18.665Z,57.65
2023-02-11T20:46:48.422Z,72.65
2023-02-11T20:49:18.719Z,59.20
2023-02-11T20:51:46.027Z,31.17
2023-02-11T20:54:14.293Z,34.42
2023-02-11T20:56:41.428Z,37.97
2023-02-11T20:59:08.397Z,34.88
2023-02-11T21:01:41.381Z,36.67
2023-02-11T21:04:12.172Z,35.28
2023-02-11T21:06:41.719Z,34.13
2023-02-11T21:09:12.147Z,38.88
2023-02-11T21:11:38.747Z,36.13
2023-02-11T21:14:05.381Z,38.42
2023-02-11T21:16:32.535Z,43.00
2023-02-11T21:19:00.411Z,38.80
2023-02-11T21:21:26.964Z,40.80
2023-02-11T21:23:53.708Z,38.88
2023-02-11T21:26:20.293Z,42.15
2023-02-11T21:28:48.566Z,37.67
2023-02-11T21:31:21.685Z,36.80
2023-02-11T21:33:49.716Z,38.70
2023-02-11T21:36:16.930Z,37.78
2023-02-11T21:38:43.490Z,42.80
2023-02-11T21:41:10.423Z,38.70
2023-02-11T21:43:37.159Z,44.28
2023-02-11T21:46:08.852Z,39.95
2023-02-11T21:48:35.470Z,42.42
2023-02-11T21:51:08.629Z,40.72
2023-02-11T21:53:35.480Z,38.78
2023-02-11T21:56:16.993Z,39.72
2023-02-11T21:58:44.582Z,41.05
2023-02-11T22:01:28.573Z,38.95
2023-02-11T22:03:55.617Z,37.45
2023-02-11T22:06:30.725Z,33.05
2023-02-11T22:08:58.173Z,35.38
2023-02-11T22:11:25.091Z,35.72
2023-02-11T22:13:56.156Z,37.53
2023-02-11T22:16:23.681Z,31.83
2023-02-11T22:18:51.308Z,36.30
2023-02-11T22:21:20.621Z,39.60
2023-02-11T22:26:17.584Z,37.92
2023-02-11T22:28:44.692Z,39.22
2023-02-11T22:31:13.345Z,46.22
2023-02-11T22:33:40.173Z,38.45
2023-02-11T22:36:12.147Z,37.90
2023-02-11T22:38:38.729Z,34.80
2023-02-11T22:41:08.006Z,47.33
2023-02-11T22:43:34.588Z,36.58
2023-02-11T22:46:02.488Z,42.10
2023-02-11T22:48:29.533Z,38.03
2023-02-11T22:50:56.415Z,35.58
2023-02-11T22:53:25.407Z,35.67
2023-02-11T22:55:52.271Z,40.80
2023-02-11T22:58:18.944Z,37.42
2023-02-11T23:00:45.440Z,37.25
2023-02-11T23:03:12.692Z,36.22
2023-02-11T23:05:42.754Z,38.90
2023-02-11T23:08:11.006Z,39.40
2023-02-11T23:10:38.939Z,36.28
2023-02-11T23:13:06.825Z,37.03
2023-02-11T23:15:33.832Z,42.47
2023-02-11T23:18:00.418Z,37.63
2023-02-11T23:20:26.953Z,41.33
2023-02-11T23:22:53.641Z,45.40
2023-02-11T23:25:20.190Z,50.03
2023-02-11T23:27:46.791Z,40.30
2023-02-11T23:30:13.816Z,42.45
2023-02-11T23:32:40.765Z,47.97
2023-02-11T23:35:07.539Z,45.90
2023-02-11T23:37:34.225Z,40.95
2023-02-11T23:40:00.780Z,38.67
2023-02-11T23:42:28.539Z,39.95
2023-02-11T23:44:55.051Z,53.88
2023-02-11T23:47:21.609Z,38.97
2023-02-11T23:49:48.206Z,41.65
2023-02-11T23:52:14.887Z,44.05
2023-02-11T23:54:43.224Z,38.72
2023-02-11T23:57:09.768Z,66.18
2023-02-11T23:59:36.355Z,44.72
